DIRECCIÓN GENERAL DE AERONÁUTICA CIVIL
DIRECCIÓN METEOROLÓGICA DE CHILE
INFORMACIÓN METAR Y TAF

FIR PUERTO MONTT

Estación: SCQP
METAR SCQP 300400Z 28005KT 240V300 9999 SCT011 12/11 Q1015=

TAF SCQP 300415Z 3006/3106 VRB02KT CAVOK TN08/3010Z TX26/3019Z TEMPO 3009/3012 8000 BKN008 BECMG 3013/3015 24010KT=

Estación: SCVD
METAR SCVD 300400Z AUTO 00000KT CAVOK 09/08 Q1015=

TAF SCVD 291632Z 2918/3006 VRB02KT CAVOK TX26/2920Z TN08/3006Z BECMG 2922/2924 25008KT SCT010=

Estación: SCJO
METAR SCJO 292200Z 14011KT CAVOK 27/14 Q1011=

TAF SCJO 291633Z 2918/3006 VRB02KT CAVOK TX25/2920Z TN08/3006Z BECMG 2922/2924 18005KT SCT020=

Estación: SCTE
METAR SCTE 300400Z 23005KT CAVOK 11/10 Q1015 NOSIG=

TAF SCTE 300416Z 3006/3106 24005KT CAVOK TN08/3010Z TX22/3019Z TEMPO 3009/3013 VRB02KT BKN010 BECMG 3014/3016 16008KT TEMPO 3018/3023 23007KT BECMG 3100/3102 SCT025=

Estación: SCPQ
METAR SCPQ 300400Z AUTO 16004KT CAVOK 09/08 Q1015=

TAF SCPQ 291640Z 2918/3006 18008KT CAVOK TX24/2920Z TN08/3006Z BECMG 2920/2022 SCT020=

Estación: SCON
METAR SCON 292000Z 14006KT CAVOK 19/09 Q1014=

TAF SCON 291635Z 2918/3006 17007KT CAVOK TX21/2920Z TN10/3006Z BECMG 2920/2922 SCT020=

Estación: SCTN
METAR SCTN 300400Z AUTO 16004KT CAVOK 13/11 Q1015=

NIL=

Estación: SCFT
METAR SCFT 300400Z AUTO VRB02KT //// SKC 15/07 Q1013=

NIL=

Estación: SCAP
METAR SCAP 300400Z AUTO VRB02KT //// // NSC 17/07 Q1018=

NIL=

Estación: SCMK
METAR SCMK 292100Z 25010KT CAVOK 19/10 Q1013=

TAF SCMK 291636Z 2918/3006 18008KT CAVOK TX21/2920Z TN10/3006Z BECMG 2920/2922 SCT020=

Estación: SCAS
METAR SCAS 292000Z 25012KT CAVOK 22/09 Q1011=

NIL=

Estación: SCCY
METAR SCCY 300000Z VRB04KT CAVOK 22/04 Q1011=

TAF SCCY 291637Z 2918/3006 VRB02KT CAVOK TX22/2920Z TN03/3006Z BECMG 2919/2921 22005KT=

Estación: SCBA
METAR SCBA 300400Z AUTO 30012KT CAVOK 14/02 Q1011=

TAF SCBA 300417Z 3006/3106 30010KT CAVOK TN05/3010Z TX21/3019Z BECMG 3016/3018 30022G34KT BECMG 3020/3022 SCT040=

Estación: SCCC
METAR SCCC 292000Z 01011KT CAVOK 24/03 Q1009=

NIL=

Estación: SCHR
METAR SCHR 292000Z 30007KT CAVOK 26/05 Q1005=

TAF SCHR 291033Z 2912/3000 VRB03KT 9999 FEW040 TN10/2912Z TX26/2918Z TEMPO 2914/2918 02005KT BECMG 2921/2923 34004KT=


Volver